sensor_id;sensor_type;location;lat;lon;timestamp;P1;durP1;ratioP1;P2;durP2;ratioP2
8213;SDS011;4148;47.974;7.824;2023-08-21T00:01:34;12.23;;;10.90;;
8213;SDS011;4148;47.974;7.824;2023-08-21T00:04:02;12.83;;;11.40;;
8213;SDS011;4148;47.974;7.824;2023-08-21T00:06:31;13.47;;;12.17;;
8213;SDS011;4148;47.974;7.824;2023-08-21T00:08:59;12.90;;;11.70;;
8213;SDS011;4148;47.974;7.824;2023-08-21T00:11:27;12.93;;;11.50;;
8213;SDS011;4148;47.974;7.824;2023-08-21T00:13:55;12.90;;;11.60;;
8213;SDS011;4148;47.974;7.824;2023-08-21T00:16:23;12.37;;;11.17;;
8213;SDS011;4148;47.974;7.824;2023-08-21T00:18:54;13.73;;;12.33;;
8213;SDS011;4148;47.974;7.824;2023-08-21T00:21:22;13.13;;;11.77;;
8213;SDS011;4148;47.974;7.824;2023-08-21T00:23:50;13.50;;;12.10;;
8213;SDS011;4148;47.974;7.824;2023-08-21T00:26:17;12.43;;;11.20;;
8213;SDS011;4148;47.974;7.824;2023-08-21T00:28:45;13.50;;;11.87;;
8213;SDS011;4148;47.974;7.824;2023-08-21T00:31:13;13.50;;;12.20;;
8213;SDS011;4148;47.974;7.824;2023-08-21T00:33:41;13.47;;;12.17;;
8213;SDS011;4148;47.974;7.824;2023-08-21T00:36:10;16.40;;;12.17;;
8213;SDS011;4148;47.974;7.824;2023-08-21T00:38:38;14.67;;;12.37;;
8213;SDS011;4148;47.974;7.824;2023-08-21T00:41:06;12.93;;;11.60;;
8213;SDS011;4148;47.974;7.824;2023-08-21T00:43:34;12.60;;;11.50;;
8213;SDS011;4148;47.974;7.824;2023-08-21T00:46:02;12.37;;;11.10;;
8213;SDS011;4148;47.974;7.824;2023-08-21T00:48:30;14.27;;;11.87;;
8213;SDS011;4148;47.974;7.824;2023-08-21T00:50:58;12.87;;;11.67;;
8213;SDS011;4148;47.974;7.824;2023-08-21T00:53:28;13.63;;;12.33;;
8213;SDS011;4148;47.974;7.824;2023-08-21T00:55:55;13.37;;;11.97;;
8213;SDS011;4148;47.974;7.824;2023-08-21T00:58:23;13.83;;;11.80;;
8213;SDS011;4148;47.974;7.824;2023-08-21T01:00:51;14.73;;;13.17;;
8213;SDS011;4148;47.974;7.824;2023-08-21T01:03:20;15.13;;;12.60;;
8213;SDS011;4148;47.974;7.824;2023-08-21T01:05:48;13.17;;;11.97;;
8213;SDS011;4148;47.974;7.824;2023-08-21T01:08:17;13.13;;;11.83;;
8213;SDS011;4148;47.974;7.824;2023-08-21T01:10:54;13.90;;;12.50;;
8213;SDS011;4148;47.974;7.824;2023-08-21T01:13:30;14.83;;;12.70;;
8213;SDS011;4148;47.974;7.824;2023-08-21T01:16:07;12.50;;;11.30;;
8213;SDS011;4148;47.974;7.824;2023-08-21T01:18:36;12.70;;;11.60;;
8213;SDS011;4148;47.974;7.824;2023-08-21T01:21:05;15.00;;;11.63;;
8213;SDS011;4148;47.974;7.824;2023-08-21T01:23:36;13.60;;;11.93;;
8213;SDS011;4148;47.974;7.824;2023-08-21T01:26:04;15.80;;;12.67;;
8213;SDS011;4148;47.974;7.824;2023-08-21T01:28:32;12.47;;;11.23;;
8213;SDS011;4148;47.974;7.824;2023-08-21T01:31:03;12.80;;;11.53;;
8213;SDS011;4148;47.974;7.824;2023-08-21T01:33:37;14.27;;;11.13;;
8213;SDS011;4148;47.974;7.824;2023-08-21T01:36:11;13.93;;;12.63;;
8213;SDS011;4148;47.974;7.824;2023-08-21T01:38:41;15.60;;;11.50;;
8213;SDS011;4148;47.974;7.824;2023-08-21T01:41:10;13.30;;;12.03;;
8213;SDS011;4148;47.974;7.824;2023-08-21T01:43:37;13.93;;;12.20;;
8213;SDS011;4148;47.974;7.824;2023-08-21T01:46:05;14.03;;;12.63;;
8213;SDS011;4148;47.974;7.824;2023-08-21T01:48:34;14.00;;;12.53;;
8213;SDS011;4148;47.974;7.824;2023-08-21T01:51:02;13.37;;;12.07;;
8213;SDS011;4148;47.974;7.824;2023-08-21T01:53:30;13.30;;;11.93;;
8213;SDS011;4148;47.974;7.824;2023-08-21T01:55:59;13.23;;;11.70;;
8213;SDS011;4148;47.974;7.824;2023-08-21T01:58:27;13.47;;;12.27;;
8213;SDS011;4148;47.974;7.824;2023-08-21T02:00:55;13.40;;;12.20;;
8213;SDS011;4148;47.974;7.824;2023-08-21T02:03:24;12.70;;;11.50;;
8213;SDS011;4148;47.974;7.824;2023-08-21T02:05:55;12.27;;;11.07;;
8213;SDS011;4148;47.974;7.824;2023-08-21T02:08:25;13.53;;;12.20;;
8213;SDS011;4148;47.974;7.824;2023-08-21T02:10:59;14.37;;;12.87;;
8213;SDS011;4148;47.974;7.824;2023-08-21T02:13:27;14.10;;;12.70;;
8213;SDS011;4148;47.974;7.824;2023-08-21T02:15:54;13.23;;;12.03;;
8213;SDS011;4148;47.974;7.824;2023-08-21T02:18:22;13.50;;;12.10;;
8213;SDS011;4148;47.974;7.824;2023-08-21T02:20:50;16.83;;;12.60;;
8213;SDS011;4148;47.974;7.824;2023-08-21T02:23:18;13.57;;;12.27;;
8213;SDS011;4148;47.974;7.824;2023-08-21T02:25:46;13.90;;;12.70;;
8213;SDS011;4148;47.974;7.824;2023-08-21T02:28:16;13.67;;;12.37;;
8213;SDS011;4148;47.974;7.824;2023-08-21T02:30:44;14.60;;;13.13;;
8213;SDS011;4148;47.974;7.824;2023-08-21T02:33:12;13.87;;;12.30;;
8213;SDS011;4148;47.974;7.824;2023-08-21T02:35:40;14.67;;;13.17;;
8213;SDS011;4148;47.974;7.824;2023-08-21T02:38:08;14.33;;;13.00;;
8213;SDS011;4148;47.974;7.824;2023-08-21T02:40:36;14.70;;;13.27;;
8213;SDS011;4148;47.974;7.824;2023-08-21T02:43:04;15.03;;;13.40;;
8213;SDS011;4148;47.974;7.824;2023-08-21T02:45:33;13.83;;;12.47;;
8213;SDS011;4148;47.974;7.824;2023-08-21T02:48:01;13.87;;;12.57;;
8213;SDS011;4148;47.974;7.824;2023-08-21T02:50:29;16.57;;;13.57;;
8213;SDS011;4148;47.974;7.824;2023-08-21T02:52:57;14.87;;;13.30;;
8213;SDS011;4148;47.974;7.824;2023-08-21T02:55:25;13.57;;;12.23;;
8213;SDS011;4148;47.974;7.824;2023-08-21T02:57:53;14.80;;;13.23;;
8213;SDS011;4148;47.974;7.824;2023-08-21T03:00:20;14.10;;;12.70;;
8213;SDS011;4148;47.974;7.824;2023-08-21T03:02:50;13.93;;;12.47;;
8213;SDS011;4148;47.974;7.824;2023-08-21T03:05:18;13.83;;;12.43;;
8213;SDS011;4148;47.974;7.824;2023-08-21T03:07:46;14.10;;;12.60;;
8213;SDS011;4148;47.974;7.824;2023-08-21T03:10:14;16.83;;;12.70;;
8213;SDS011;4148;47.974;7.824;2023-08-21T03:12:42;13.10;;;11.90;;
8213;SDS011;4148;47.974;7.824;2023-08-21T03:15:09;13.23;;;11.80;;
8213;SDS011;4148;47.974;7.824;2023-08-21T03:17:37;13.30;;;12.00;;
8213;SDS011;4148;47.974;7.824;2023-08-21T03:20:07;13.60;;;12.30;;
8213;SDS011;4148;47.974;7.824;2023-08-21T03:22:35;17.80;;;13.13;;
8213;SDS011;4148;47.974;7.824;2023-08-21T03:25:04;16.60;;;12.90;;
8213;SDS011;4148;47.974;7.824;2023-08-21T03:27:32;14.60;;;13.00;;
8213;SDS011;4148;47.974;7.824;2023-08-21T03:30:05;14.90;;;13.23;;
8213;SDS011;4148;47.974;7.824;2023-08-21T03:32:36;15.27;;;13.77;;
8213;SDS011;4148;47.974;7.824;2023-08-21T03:35:04;15.70;;;14.00;;
8213;SDS011;4148;47.974;7.824;2023-08-21T03:37:34;16.10;;;14.40;;
8213;SDS011;4148;47.974;7.824;2023-08-21T03:40:02;16.53;;;15.03;;
8213;SDS011;4148;47.974;7.824;2023-08-21T03:42:30;16.37;;;14.57;;
8213;SDS011;4148;47.974;7.824;2023-08-21T03:44:58;15.63;;;14.03;;
8213;SDS011;4148;47.974;7.824;2023-08-21T03:47:26;14.77;;;13.30;;
8213;SDS011;4148;47.974;7.824;2023-08-21T03:49:54;13.23;;;11.93;;
8213;SDS011;4148;47.974;7.824;2023-08-21T03:52:23;14.70;;;13.30;;
8213;SDS011;4148;47.974;7.824;2023-08-21T03:54:51;15.33;;;13.73;;
8213;SDS011;4148;47.974;7.824;2023-08-21T03:57:19;16.47;;;13.27;;
8213;SDS011;4148;47.974;7.824;2023-08-21T03:59:47;13.90;;;12.60;;
8213;SDS011;4148;47.974;7.824;2023-08-21T04:02:15;15.17;;;12.90;;
8213;SDS011;4148;47.974;7.824;2023-08-21T04:04:43;14.67;;;13.17;;
8213;SDS011;4148;47.974;7.824;2023-08-21T04:07:10;14.50;;;13.10;;
8213;SDS011;4148;47.974;7.824;2023-08-21T04:09:40;17.23;;;13.07;;
8213;SDS011;4148;47.974;7.824;2023-08-21T04:12:08;14.77;;;13.30;;
8213;SDS011;4148;47.974;7.824;2023-08-21T04:14:36;14.83;;;13.00;;
8213;SDS011;4148;47.974;7.824;2023-08-21T04:17:04;15.07;;;13.53;;
8213;SDS011;4148;47.974;7.824;2023-08-21T04:19:31;16.83;;;13.20;;
8213;SDS011;4148;47.974;7.824;2023-08-21T04:22:00;15.07;;;13.40;;
8213;SDS011;4148;47.974;7.824;2023-08-21T04:24:28;14.80;;;13.30;;
8213;SDS011;4148;47.974;7.824;2023-08-21T04:26:57;20.60;;;13.40;;
8213;SDS011;4148;47.974;7.824;2023-08-21T04:29:25;14.00;;;12.70;;
8213;SDS011;4148;47.974;7.824;2023-08-21T04:31:53;15.90;;;14.17;;
8213;SDS011;4148;47.974;7.824;2023-08-21T04:34:21;15.30;;;13.70;;
8213;SDS011;4148;47.974;7.824;2023-08-21T04:36:49;13.83;;;12.53;;
8213;SDS011;4148;47.974;7.824;2023-08-21T04:39:18;14.53;;;13.03;;
8213;SDS011;4148;47.974;7.824;2023-08-21T04:41:46;15.50;;;13.90;;
8213;SDS011;4148;47.974;7.824;2023-08-21T04:44:15;15.53;;;13.10;;
8213;SDS011;4148;47.974;7.824;2023-08-21T04:46:47;15.07;;;13.60;;
8213;SDS011;4148;47.974;7.824;2023-08-21T04:49:16;17.60;;;12.63;;
8213;SDS011;4148;47.974;7.824;2023-08-21T04:51:44;15.40;;;13.83;;
8213;SDS011;4148;47.974;7.824;2023-08-21T04:54:11;14.73;;;13.23;;
8213;SDS011;4148;47.974;7.824;2023-08-21T04:56:39;14.67;;;13.17;;
8213;SDS011;4148;47.974;7.824;2023-08-21T04:59:07;20.00;;;13.20;;
8213;SDS011;4148;47.974;7.824;2023-08-21T05:01:36;15.90;;;14.37;;
8213;SDS011;4148;47.974;7.824;2023-08-21T05:04:04;14.73;;;13.33;;
8213;SDS011;4148;47.974;7.824;2023-08-21T05:06:32;14.60;;;13.20;;
8213;SDS011;4148;47.974;7.824;2023-08-21T05:09:00;14.20;;;12.63;;
8213;SDS011;4148;47.974;7.824;2023-08-21T05:11:28;15.37;;;13.60;;
8213;SDS011;4148;47.974;7.824;2023-08-21T05:13:56;14.87;;;13.30;;
8213;SDS011;4148;47.974;7.824;2023-08-21T05:16:27;15.70;;;14.10;;
8213;SDS011;4148;47.974;7.824;2023-08-21T05:18:56;15.57;;;14.17;;
8213;SDS011;4148;47.974;7.824;2023-08-21T05:21:24;14.93;;;13.37;;
8213;SDS011;4148;47.974;7.824;2023-08-21T05:23:52;13.53;;;12.03;;
8213;SDS011;4148;47.974;7.824;2023-08-21T05:26:20;16.10;;;12.90;;
8213;SDS011;4148;47.974;7.824;2023-08-21T05:28:48;16.00;;;14.33;;
8213;SDS011;4148;47.974;7.824;2023-08-21T05:31:16;19.93;;;13.73;;
8213;SDS011;4148;47.974;7.824;2023-08-21T05:33:44;14.63;;;13.10;;
8213;SDS011;4148;47.974;7.824;2023-08-21T05:36:13;16.97;;;13.23;;
8213;SDS011;4148;47.974;7.824;2023-08-21T05:38:41;15.00;;;13.10;;
8213;SDS011;4148;47.974;7.824;2023-08-21T05:41:09;14.80;;;13.10;;
8213;SDS011;4148;47.974;7.824;2023-08-21T05:43:37;14.80;;;13.30;;
8213;SDS011;4148;47.974;7.824;2023-08-21T05:46:05;15.90;;;14.10;;
8213;SDS011;4148;47.974;7.824;2023-08-21T05:48:34;14.67;;;13.10;;
8213;SDS011;4148;47.974;7.824;2023-08-21T05:51:02;14.93;;;13.27;;
8213;SDS011;4148;47.974;7.824;2023-08-21T05:53:32;14.77;;;13.37;;
8213;SDS011;4148;47.974;7.824;2023-08-21T05:55:59;14.20;;;12.80;;
8213;SDS011;4148;47.974;7.824;2023-08-21T05:58:27;16.33;;;14.57;;
8213;SDS011;4148;47.974;7.824;2023-08-21T06:00:57;14.87;;;13.40;;
8213;SDS011;4148;47.974;7.824;2023-08-21T06:03:26;14.30;;;12.80;;
8213;SDS011;4148;47.974;7.824;2023-08-21T06:05:54;15.10;;;13.50;;
8213;SDS011;4148;47.974;7.824;2023-08-21T06:08:21;14.97;;;13.57;;
8213;SDS011;4148;47.974;7.824;2023-08-21T06:10:54;18.63;;;14.10;;
8213;SDS011;4148;47.974;7.824;2023-08-21T06:13:22;15.50;;;12.10;;
8213;SDS011;4148;47.974;7.824;2023-08-21T06:15:49;15.07;;;13.37;;
8213;SDS011;4148;47.974;7.824;2023-08-21T06:18:17;14.70;;;13.40;;
8213;SDS011;4148;47.974;7.824;2023-08-21T06:20:45;14.83;;;13.33;;
8213;SDS011;4148;47.974;7.824;2023-08-21T06:23:13;14.70;;;13.20;;
8213;SDS011;4148;47.974;7.824;2023-08-21T06:25:41;13.93;;;12.53;;
8213;SDS011;4148;47.974;7.824;2023-08-21T06:28:11;14.77;;;13.23;;
8213;SDS011;4148;47.974;7.824;2023-08-21T06:30:39;16.30;;;12.27;;
8213;SDS011;4148;47.974;7.824;2023-08-21T06:33:07;14.67;;;13.33;;
8213;SDS011;4148;47.974;7.824;2023-08-21T06:35:35;15.23;;;13.63;;
8213;SDS011;4148;47.974;7.824;2023-08-21T06:38:03;13.97;;;12.60;;
8213;SDS011;4148;47.974;7.824;2023-08-21T06:40:32;14.90;;;13.47;;
8213;SDS011;4148;47.974;7.824;2023-08-21T06:43:00;15.40;;;13.80;;
8213;SDS011;4148;47.974;7.824;2023-08-21T06:45:31;16.93;;;15.13;;
8213;SDS011;4148;47.974;7.824;2023-08-21T06:47:59;13.17;;;11.93;;
8213;SDS011;4148;47.974;7.824;2023-08-21T06:50:27;14.87;;;13.43;;
8213;SDS011;4148;47.974;7.824;2023-08-21T06:52:55;15.87;;;13.23;;
8213;SDS011;4148;47.974;7.824;2023-08-21T06:55:23;14.83;;;13.23;;
8213;SDS011;4148;47.974;7.824;2023-08-21T06:57:51;14.50;;;13.30;;
8213;SDS011;4148;47.974;7.824;2023-08-21T07:00:18;20.03;;;13.10;;
8213;SDS011;4148;47.974;7.824;2023-08-21T07:02:48;14.03;;;12.60;;
8213;SDS011;4148;47.974;7.824;2023-08-21T07:05:16;15.93;;;14.20;;
8213;SDS011;4148;47.974;7.824;2023-08-21T07:07:44;15.03;;;13.57;;
8213;SDS011;4148;47.974;7.824;2023-08-21T07:10:12;14.00;;;12.60;;
8213;SDS011;4148;47.974;7.824;2023-08-21T07:12:40;14.13;;;12.07;;
8213;SDS011;4148;47.974;7.824;2023-08-21T07:15:08;15.63;;;12.33;;
8213;SDS011;4148;47.974;7.824;2023-08-21T07:17:37;15.13;;;12.70;;
8213;SDS011;4148;47.974;7.824;2023-08-21T07:20:07;12.13;;;10.97;;
8213;SDS011;4148;47.974;7.824;2023-08-21T07:22:35;14.77;;;13.27;;
8213;SDS011;4148;47.974;7.824;2023-08-21T07:25:04;13.97;;;12.37;;
8213;SDS011;4148;47.974;7.824;2023-08-21T07:27:32;14.20;;;12.70;;
8213;SDS011;4148;47.974;7.824;2023-08-21T07:30:00;16.50;;;12.77;;
8213;SDS011;4148;47.974;7.824;2023-08-21T07:32:28;13.23;;;11.93;;
8213;SDS011;4148;47.974;7.824;2023-08-21T07:34:56;13.50;;;12.27;;
8213;SDS011;4148;47.974;7.824;2023-08-21T07:37:25;12.20;;;10.60;;
8213;SDS011;4148;47.974;7.824;2023-08-21T07:39:53;12.00;;;10.10;;
8213;SDS011;4148;47.974;7.824;2023-08-21T07:42:23;13.13;;;11.80;;
8213;SDS011;4148;47.974;7.824;2023-08-21T07:44:51;11.40;;;10.33;;
8213;SDS011;4148;47.974;7.824;2023-08-21T07:47:19;13.13;;;11.83;;
8213;SDS011;4148;47.974;7.824;2023-08-21T07:49:47;11.37;;;10.37;;
8213;SDS011;4148;47.974;7.824;2023-08-21T07:52:15;10.80;;;9.77;;
8213;SDS011;4148;47.974;7.824;2023-08-21T07:54:44;14.80;;;11.80;;
8213;SDS011;4148;47.974;7.824;2023-08-21T07:57:12;12.53;;;10.87;;
8213;SDS011;4148;47.974;7.824;2023-08-21T07:59:40;12.20;;;11.00;;
8213;SDS011;4148;47.974;7.824;2023-08-21T08:02:08;11.83;;;10.73;;
8213;SDS011;4148;47.974;7.824;2023-08-21T08:04:36;12.27;;;10.37;;
8213;SDS011;4148;47.974;7.824;2023-08-21T08:07:04;11.63;;;10.53;;
8213;SDS011;4148;47.974;7.824;2023-08-21T08:09:31;13.23;;;11.90;;
8213;SDS011;4148;47.974;7.824;2023-08-21T08:12:01;12.30;;;10.73;;
8213;SDS011;4148;47.974;7.824;2023-08-21T08:14:31;13.60;;;11.13;;
8213;SDS011;4148;47.974;7.824;2023-08-21T08:16:59;12.70;;;11.40;;
8213;SDS011;4148;47.974;7.824;2023-08-21T08:19:27;15.43;;;10.60;;
8213;SDS011;4148;47.974;7.824;2023-08-21T08:21:55;13.93;;;10.77;;
8213;SDS011;4148;47.974;7.824;2023-08-21T08:24:23;12.60;;;11.30;;
8213;SDS011;4148;47.974;7.824;2023-08-21T08:26:51;12.13;;;10.93;;
8213;SDS011;4148;47.974;7.824;2023-08-21T08:29:20;12.40;;;11.23;;
8213;SDS011;4148;47.974;7.824;2023-08-21T08:31:48;12.90;;;11.70;;
8213;SDS011;4148;47.974;7.824;2023-08-21T08:34:16;13.37;;;12.07;;
8213;SDS011;4148;47.974;7.824;2023-08-21T08:36:46;11.40;;;10.40;;
8213;SDS011;4148;47.974;7.824;2023-08-21T08:39:14;12.03;;;10.33;;
8213;SDS011;4148;47.974;7.824;2023-08-21T08:41:43;11.10;;;10.20;;
8213;SDS011;4148;47.974;7.824;2023-08-21T08:44:18;13.73;;;12.27;;
8213;SDS011;4148;47.974;7.824;2023-08-21T08:46:49;13.20;;;11.80;;
8213;SDS011;4148;47.974;7.824;2023-08-21T08:49:18;12.20;;;11.10;;
8213;SDS011;4148;47.974;7.824;2023-08-21T08:51:47;13.80;;;12.00;;
8213;SDS011;4148;47.974;7.824;2023-08-21T08:54:17;15.20;;;12.40;;
8213;SDS011;4148;47.974;7.824;2023-08-21T08:56:46;13.73;;;11.67;;
8213;SDS011;4148;47.974;7.824;2023-08-21T08:59:15;11.40;;;10.50;;
8213;SDS011;4148;47.974;7.824;2023-08-21T09:01:44;12.00;;;10.97;;
8213;SDS011;4148;47.974;7.824;2023-08-21T09:04:12;12.00;;;11.00;;
8213;SDS011;4148;47.974;7.824;2023-08-21T09:06:40;11.27;;;10.17;;
8213;SDS011;4148;47.974;7.824;2023-08-21T09:09:08;13.33;;;10.60;;
8213;SDS011;4148;47.974;7.824;2023-08-21T09:11:42;12.03;;;10.80;;
8213;SDS011;4148;47.974;7.824;2023-08-21T09:14:10;11.97;;;10.77;;
8213;SDS011;4148;47.974;7.824;2023-08-21T09:16:57;11.90;;;9.80;;
8213;SDS011;4148;47.974;7.824;2023-08-21T09:19:30;12.37;;;11.27;;
8213;SDS011;4148;47.974;7.824;2023-08-21T09:21:57;11.90;;;10.70;;
8213;SDS011;4148;47.974;7.824;2023-08-21T09:24:25;11.60;;;10.40;;
8213;SDS011;4148;47.974;7.824;2023-08-21T09:26:53;12.10;;;10.90;;
8213;SDS011;4148;47.974;7.824;2023-08-21T09:29:23;12.27;;;10.97;;
8213;SDS011;4148;47.974;7.824;2023-08-21T09:31:51;12.33;;;11.23;;
8213;SDS011;4148;47.974;7.824;2023-08-21T09:34:25;12.33;;;11.33;;
8213;SDS011;4148;47.974;7.824;2023-08-21T09:37:04;12.23;;;11.07;;
8213;SDS011;4148;47.974;7.824;2023-08-21T09:39:34;12.60;;;10.83;;
8213;SDS011;4148;47.974;7.824;2023-08-21T09:42:04;12.20;;;11.00;;
8213;SDS011;4148;47.974;7.824;2023-08-21T09:44:37;11.90;;;11.00;;
8213;SDS011;4148;47.974;7.824;2023-08-21T09:47:07;11.50;;;10.50;;
8213;SDS011;4148;47.974;7.824;2023-08-21T09:49:38;12.50;;;11.30;;
8213;SDS011;4148;47.974;7.824;2023-08-21T09:52:08;12.93;;;11.57;;
8213;SDS011;4148;47.974;7.824;2023-08-21T09:54:37;12.30;;;11.07;;
8213;SDS011;4148;47.974;7.824;2023-08-21T09:57:06;13.50;;;11.53;;
8213;SDS011;4148;47.974;7.824;2023-08-21T09:59:34;12.17;;;11.03;;
8213;SDS011;4148;47.974;7.824;2023-08-21T10:02:05;11.87;;;10.77;;
8213;SDS011;4148;47.974;7.824;2023-08-21T10:04:34;12.57;;;11.03;;
8213;SDS011;4148;47.974;7.824;2023-08-21T10:07:04;11.67;;;10.70;;
8213;SDS011;4148;47.974;7.824;2023-08-21T10:09:34;12.27;;;11.17;;
8213;SDS011;4148;47.974;7.824;2023-08-21T10:12:03;12.87;;;11.37;;
8213;SDS011;4148;47.974;7.824;2023-08-21T10:14:31;11.80;;;10.60;;
8213;SDS011;4148;47.974;7.824;2023-08-21T10:17:00;11.30;;;10.20;;
8213;SDS011;4148;47.974;7.824;2023-08-21T10:19:32;12.10;;;10.90;;
8213;SDS011;4148;47.974;7.824;2023-08-21T10:22:00;12.53;;;11.33;;
8213;SDS011;4148;47.974;7.824;2023-08-21T10:24:34;11.60;;;10.50;;
8213;SDS011;4148;47.974;7.824;2023-08-21T10:27:05;11.83;;;10.80;;
8213;SDS011;4148;47.974;7.824;2023-08-21T10:29:34;15.50;;;11.00;;
8213;SDS011;4148;47.974;7.824;2023-08-21T10:32:03;11.60;;;10.60;;
8213;SDS011;4148;47.974;7.824;2023-08-21T10:34:33;10.63;;;9.73;;
8213;SDS011;4148;47.974;7.824;2023-08-21T10:37:04;14.07;;;11.13;;
8213;SDS011;4148;47.974;7.824;2023-08-21T10:39:37;11.90;;;10.63;;
8213;SDS011;4148;47.974;7.824;2023-08-21T10:42:07;11.80;;;10.80;;
8213;SDS011;4148;47.974;7.824;2023-08-21T10:44:46;12.33;;;11.10;;
8213;SDS011;4148;47.974;7.824;2023-08-21T10:47:19;12.73;;;11.43;;
8213;SDS011;4148;47.974;7.824;2023-08-21T10:49:50;13.30;;;10.80;;
8213;SDS011;4148;47.974;7.824;2023-08-21T10:52:23;11.73;;;10.60;;
8213;SDS011;4148;47.974;7.824;2023-08-21T10:54:53;11.10;;;10.10;;
8213;SDS011;4148;47.974;7.824;2023-08-21T10:57:22;10.90;;;10.03;;
8213;SDS011;4148;47.974;7.824;2023-08-21T10:59:52;11.67;;;10.60;;
8213;SDS011;4148;47.974;7.824;2023-08-21T11:02:21;10.67;;;9.70;;
8213;SDS011;4148;47.974;7.824;2023-08-21T11:04:50;10.97;;;10.00;;
8213;SDS011;4148;47.974;7.824;2023-08-21T11:07:18;10.50;;;9.60;;
8213;SDS011;4148;47.974;7.824;2023-08-21T11:09:47;10.87;;;9.60;;
8213;SDS011;4148;47.974;7.824;2023-08-21T11:12:17;10.63;;;9.60;;
8213;SDS011;4148;47.974;7.824;2023-08-21T11:14:46;9.97;;;9.00;;
8213;SDS011;4148;47.974;7.824;2023-08-21T11:17:14;11.87;;;10.47;;
8213;SDS011;4148;47.974;7.824;2023-08-21T11:19:42;10.17;;;9.27;;
8213;SDS011;4148;47.974;7.824;2023-08-21T11:22:10;10.43;;;9.53;;
8213;SDS011;4148;47.974;7.824;2023-08-21T11:24:39;10.53;;;9.73;;
8213;SDS011;4148;47.974;7.824;2023-08-21T11:27:09;10.90;;;9.90;;
8213;SDS011;4148;47.974;7.824;2023-08-21T11:29:40;11.13;;;10.03;;
8213;SDS011;4148;47.974;7.824;2023-08-21T11:32:09;11.00;;;10.00;;
8213;SDS011;4148;47.974;7.824;2023-08-21T11:34:38;10.73;;;9.63;;
8213;SDS011;4148;47.974;7.824;2023-08-21T11:37:06;11.20;;;9.70;;
8213;SDS011;4148;47.974;7.824;2023-08-21T11:39:44;11.60;;;9.40;;
8213;SDS011;4148;47.974;7.824;2023-08-21T11:42:12;10.43;;;9.70;;
8213;SDS011;4148;47.974;7.824;2023-08-21T11:44:43;11.33;;;10.43;;
8213;SDS011;4148;47.974;7.824;2023-08-21T11:47:13;10.60;;;9.60;;
8213;SDS011;4148;47.974;7.824;2023-08-21T11:49:41;10.80;;;9.53;;
8213;SDS011;4148;47.974;7.824;2023-08-21T11:52:11;12.43;;;11.30;;
8213;SDS011;4148;47.974;7.824;2023-08-21T11:54:40;11.03;;;10.00;;
8213;SDS011;4148;47.974;7.824;2023-08-21T11:57:11;10.60;;;9.80;;
8213;SDS011;4148;47.974;7.824;2023-08-21T11:59:40;10.67;;;9.57;;
8213;SDS011;4148;47.974;7.824;2023-08-21T12:02:10;10.20;;;9.10;;
8213;SDS011;4148;47.974;7.824;2023-08-21T12:04:41;12.87;;;10.30;;
8213;SDS011;4148;47.974;7.824;2023-08-21T12:07:10;13.63;;;10.33;;
8213;SDS011;4148;47.974;7.824;2023-08-21T12:09:45;11.43;;;9.60;;
8213;SDS011;4148;47.974;7.824;2023-08-21T12:12:14;10.43;;;9.40;;
8213;SDS011;4148;47.974;7.824;2023-08-21T12:14:42;10.53;;;9.63;;
8213;SDS011;4148;47.974;7.824;2023-08-21T12:17:11;11.20;;;10.00;;
8213;SDS011;4148;47.974;7.824;2023-08-21T12:19:39;11.93;;;9.90;;
8213;SDS011;4148;47.974;7.824;2023-08-21T12:22:07;12.07;;;10.37;;
8213;SDS011;4148;47.974;7.824;2023-08-21T12:24:35;10.83;;;9.07;;
8213;SDS011;4148;47.974;7.824;2023-08-21T12:27:04;10.93;;;10.00;;
8213;SDS011;4148;47.974;7.824;2023-08-21T12:29:33;9.93;;;8.90;;
8213;SDS011;4148;47.974;7.824;2023-08-21T12:32:01;10.63;;;9.63;;
8213;SDS011;4148;47.974;7.824;2023-08-21T12:34:31;10.80;;;9.90;;
8213;SDS011;4148;47.974;7.824;2023-08-21T12:36:59;10.43;;;9.40;;
8213;SDS011;4148;47.974;7.824;2023-08-21T12:39:27;10.63;;;9.23;;
8213;SDS011;4148;47.974;7.824;2023-08-21T12:41:54;13.77;;;9.43;;
8213;SDS011;4148;47.974;7.824;2023-08-21T12:44:22;11.30;;;10.10;;
8213;SDS011;4148;47.974;7.824;2023-08-21T12:46:50;10.80;;;9.50;;
8213;SDS011;4148;47.974;7.824;2023-08-21T12:49:18;10.40;;;9.60;;
8213;SDS011;4148;47.974;7.824;2023-08-21T12:51:47;10.40;;;9.40;;
8213;SDS011;4148;47.974;7.824;2023-08-21T12:54:15;9.90;;;8.90;;
8213;SDS011;4148;47.974;7.824;2023-08-21T12:56:43;11.03;;;10.00;;
8213;SDS011;4148;47.974;7.824;2023-08-21T12:59:12;10.30;;;9.30;;
8213;SDS011;4148;47.974;7.824;2023-08-21T13:01:42;11.00;;;9.93;;
8213;SDS011;4148;47.974;7.824;2023-08-21T13:04:10;12.13;;;10.03;;
8213;SDS011;4148;47.974;7.824;2023-08-21T13:06:38;10.00;;;9.00;;
8213;SDS011;4148;47.974;7.824;2023-08-21T13:09:08;10.63;;;9.63;;
8213;SDS011;4148;47.974;7.824;2023-08-21T13:11:36;13.17;;;9.60;;
8213;SDS011;4148;47.974;7.824;2023-08-21T13:14:03;10.57;;;9.53;;
8213;SDS011;4148;47.974;7.824;2023-08-21T13:16:31;11.23;;;9.70;;
8213;SDS011;4148;47.974;7.824;2023-08-21T13:18:59;11.30;;;9.77;;
8213;SDS011;4148;47.974;7.824;2023-08-21T13:21:27;10.70;;;9.60;;
8213;SDS011;4148;47.974;7.824;2023-08-21T13:23:55;13.00;;;10.60;;
8213;SDS011;4148;47.974;7.824;2023-08-21T13:26:24;10.60;;;9.50;;
8213;SDS011;4148;47.974;7.824;2023-08-21T13:28:55;10.33;;;9.53;;
8213;SDS011;4148;47.974;7.824;2023-08-21T13:31:23;10.70;;;9.80;;
8213;SDS011;4148;47.974;7.824;2023-08-21T13:33:51;9.20;;;8.30;;
8213;SDS011;4148;47.974;7.824;2023-08-21T13:36:20;11.70;;;10.50;;
8213;SDS011;4148;47.974;7.824;2023-08-21T13:38:51;10.57;;;9.67;;
8213;SDS011;4148;47.974;7.824;2023-08-21T13:41:18;10.20;;;9.30;;
8213;SDS011;4148;47.974;7.824;2023-08-21T13:43:48;10.60;;;9.60;;
8213;SDS011;4148;47.974;7.824;2023-08-21T13:46:16;10.40;;;9.40;;
8213;SDS011;4148;47.974;7.824;2023-08-21T13:48:44;10.77;;;9.73;;
8213;SDS011;4148;47.974;7.824;2023-08-21T13:51:12;10.73;;;9.57;;
8213;SDS011;4148;47.974;7.824;2023-08-21T13:53:39;11.33;;;10.13;;
8213;SDS011;4148;47.974;7.824;2023-08-21T13:56:07;10.33;;;9.43;;
8213;SDS011;4148;47.974;7.824;2023-08-21T13:58:35;10.77;;;9.63;;
8213;SDS011;4148;47.974;7.824;2023-08-21T14:01:04;10.37;;;9.40;;
8213;SDS011;4148;47.974;7.824;2023-08-21T14:03:34;10.70;;;9.30;;
8213;SDS011;4148;47.974;7.824;2023-08-21T14:06:02;9.37;;;8.47;;
8213;SDS011;4148;47.974;7.824;2023-08-21T14:08:30;14.17;;;9.03;;
8213;SDS011;4148;47.974;7.824;2023-08-21T14:10:58;10.90;;;9.17;;
8213;SDS011;4148;47.974;7.824;2023-08-21T14:13:26;13.07;;;9.27;;
8213;SDS011;4148;47.974;7.824;2023-08-21T14:15:54;10.47;;;9.57;;
8213;SDS011;4148;47.974;7.824;2023-08-21T14:18:23;9.70;;;8.50;;
8213;SDS011;4148;47.974;7.824;2023-08-21T14:20:51;9.73;;;8.80;;
8213;SDS011;4148;47.974;7.824;2023-08-21T14:23:19;10.07;;;8.67;;
8213;SDS011;4148;47.974;7.824;2023-08-21T14:25:47;11.33;;;8.87;;
8213;SDS011;4148;47.974;7.824;2023-08-21T14:28:15;9.97;;;8.93;;
8213;SDS011;4148;47.974;7.824;2023-08-21T14:30:43;10.17;;;9.27;;
8213;SDS011;4148;47.974;7.824;2023-08-21T14:33:13;10.80;;;8.67;;
8213;SDS011;4148;47.974;7.824;2023-08-21T14:35:42;8.93;;;8.20;;
8213;SDS011;4148;47.974;7.824;2023-08-21T14:38:10;9.23;;;8.20;;
8213;SDS011;4148;47.974;7.824;2023-08-21T14:40:39;13.10;;;9.33;;
8213;SDS011;4148;47.974;7.824;2023-08-21T14:43:07;10.03;;;7.97;;
8213;SDS011;4148;47.974;7.824;2023-08-21T14:45:35;9.60;;;8.70;;
8213;SDS011;4148;47.974;7.824;2023-08-21T14:48:03;10.13;;;7.30;;
8213;SDS011;4148;47.974;7.824;2023-08-21T14:50:31;8.70;;;7.83;;
8213;SDS011;4148;47.974;7.824;2023-08-21T14:53:00;9.07;;;7.47;;
8213;SDS011;4148;47.974;7.824;2023-08-21T14:55:28;8.77;;;7.87;;
8213;SDS011;4148;47.974;7.824;2023-08-21T14:57:56;8.20;;;7.40;;
8213;SDS011;4148;47.974;7.824;2023-08-21T15:00:24;8.57;;;7.43;;